Terminal Aerodrome Forecast
Issued by NWS Memphis, TN

Home | Current Version | Previous Version | Text Only | Print | Product List | Glossary On
Versions: 1 2 3 4 5 6 7 8 9 10 11 12 13 14 15
447
FTUS44 KMEG 271503 AAA
TAFMKL
TAF AMD
KMKL 271503Z 2715/2812 VRB03KT P6SM BKN020
      TEMPO 2715/2716 BKN010
     FM271800 16005KT P6SM VCTS BKN040CB
      TEMPO 2720/2724 4SM -TSRA OVC025CB
     FM280200 VRB03KT 6SM BR VCTS OVC020CB=

USA.gov is the U.S. government's official web portal to all federal, state and local government web resources and services.